Tropical Cyclones
[Index]
Main Index Home Page Stock Weather Photos Extreme Storms Discussion Storm News and Storm Chasing Reports Tropical Cyclones / Hurricanes / Typhoons Weather Data and Links Wild Fires / Bushfires Weather Observation Techniques Weather Picture Catalogue Tornado Pictures and Reports Stock Video Footage and DVDs for sale
Season 2010-2011 Tropical Cyclone 201011_06 Track Map
Season 2010-2011 Summaries: [BoM-AU] [JTWC-AU] [JTWC-SIO] [JTWC-SPAC] [JTWC-SH]
<<- Previous TC | BoM 2010-2011 Season | Next TC ->>

click for intensity scale information  Lat/long Grid: Show Hide

 Date Labels: Show Hide

Bureau of Meteorology Tropical Cyclone Data

Name: 201011_06
Number: 942 / 201011_06

29 Dec 2010 00:00 UTC to 05 Jan 2011 01:00 UTC

    date/time    lat    long    hPa   cat  kts
2010-12-29 00   14.5   132.8   1002         10          
2010-12-29 06   14.5   132.8   1000         10          
2010-12-29 12   14.7   132.3   1000         10          
2010-12-30 00   15.0   131.2   1000         10          
2010-12-30 03   15.0   130.9   1000         10          
2010-12-30 06   15.1   130.2   1000         10          
2010-12-30 09   15.3   129.3                            
2010-12-30 12   15.5   128.4   1000         10          
2010-12-30 13   15.5   128.1   1000         10          
2010-12-30 15   15.6   127.6   1000         10          
2010-12-30 18   15.6   126.8   1000         15          
2010-12-30 21   15.7   126.0   1000         15          
2010-12-31 00   16.0   125.3    999         15          
2010-12-31 03   16.1   124.6    999         15          
2010-12-31 06   16.3   123.8    997         15          
2010-12-31 09   16.7   123.0    997         20          
2010-12-31 10   17.2   122.2    997         22          
2010-12-31 12   17.3   121.7    997         25          
2010-12-31 13   17.4   121.3    997         25          
2010-12-31 15   17.6   120.9    997         25          
2010-12-31 18   18.0   120.1    997         25          
2010-12-31 21   18.4   119.3    996         25          
2011-01-01 00   18.8   118.1    996         25          
2011-01-01 03   19.1   117.0    993    1    30          
2011-01-01 06   19.2   115.8    993    1    30          
2011-01-01 09   19.3   114.9    993    1    30          
2011-01-01 12   19.3   114.5    993    1    30          
2011-01-01 13   19.3   114.0    993    1    30          
2011-01-01 16   19.3   113.3    993    1    30          
2011-01-01 18   19.3   113.1    993    1    30          
2011-01-01 21   19.4   112.7    993    1    30          
2011-01-02 00   19.6   112.1    993    1    30          
2011-01-02 03   19.9   111.0    993    1    30          
2011-01-02 06   20.3   110.1    993    1    30          
2011-01-02 12   20.6   108.9                25          
2011-01-02 13   20.7   108.6                25          
2011-01-02 18   20.3   107.8                25          
2011-01-02 18   20.3   107.7                25          
2011-01-03 00   19.9   107.3                20          
2011-01-03 03   19.6   106.9                20          
2011-01-03 06   19.4   106.9                20          
2011-01-03 10   19.1   107.0                20          
2011-01-03 12   19.2   107.0                20          
2011-01-03 13   19.5   107.0                20          
2011-01-03 18   19.8   106.9                20          
2011-01-03 20   20.0   106.8                20          
2011-01-03 21   20.1   106.5                20          
2011-01-04 00   20.7   106.3                20          
2011-01-04 03   21.1   105.4                20          
2011-01-05 00   20.8   102.8                20          
2011-01-05 01   20.7   103.0                20          
Winds are 10-min average.

Tropical cyclone tracks developed by Michael Bath using data from the Bureau of Meteorology and Google Maps.


[Australian Severe Weather index] [Copyright Notice] [Email Contacts] [Search This Site] [Privacy Policy]
Document: tropical_cyclone_201011_06.htm Updated: 29 June 2017